Time;durP1;ratioP1;P1;durP2;ratioP2;P2;SDS_P1;SDS_P2;PMS_P1;PMS_P2;Temp;Humidity;BMP_temperature;BMP_pressure;BME280_temperature;BME280_humidity;BME280_pressure;Samples;Min_cycle;Max_cycle;Signal;HPM_P1;HPM_P2
2023/12/05 00:00:20;;;;;;;6.80;6.60;;;;;;;-141.02;100.00;38753.19;5095704;28;20220;-68
2023/12/05 00:02:49;;;;;;;7.47;7.27;;;;;;;-141.02;100.00;38772.38;5095366;28;20264;-69
2023/12/05 00:05:16;;;;;;;6.70;6.50;;;;;;;-141.02;100.00;38770.44;5095618;28;20236;-70
2023/12/05 00:07:44;;;;;;;7.13;6.93;;;;;;;-141.02;100.00;38760.84;5095521;28;20190;-68
2023/12/05 00:10:11;;;;;;;7.50;7.30;;;;;;;-141.02;100.00;38776.19;5095547;28;20197;-69
2023/12/05 00:12:39;;;;;;;7.70;7.50;;;;;;;-141.02;100.00;38772.38;5095533;28;20204;-68
2023/12/05 00:15:07;;;;;;;7.20;7.00;;;;;;;-141.02;100.00;38753.19;5095430;28;20251;-79
2023/12/05 00:17:34;;;;;;;7.23;7.03;;;;;;;-141.02;100.00;38747.44;5095383;28;20250;-79
2023/12/05 00:20:01;;;;;;;6.97;6.77;;;;;;;-141.02;100.00;38772.38;5095007;28;20289;-68
2023/12/05 00:22:28;;;;;;;6.80;6.60;;;;;;;-141.02;100.00;38730.19;5095298;28;20201;-80
2023/12/05 00:25:02;;;;;;;6.80;6.60;;;;;;;-141.02;100.00;38711.00;5095164;28;20312;-79
2023/12/05 00:27:29;;;;;;;7.20;7.00;;;;;;;-141.02;100.00;38726.34;5095217;28;20259;-68
2023/12/05 00:29:58;;;;;;;7.10;6.90;;;;;;;-141.02;100.00;38707.19;5094833;28;20284;-67
2023/12/05 00:32:25;;;;;;;7.33;7.13;;;;;;;-141.02;100.00;38730.19;5094825;28;20237;-69
2023/12/05 00:34:52;;;;;;;8.00;7.80;;;;;;;-141.02;100.00;38676.50;5094252;28;20613;-68
2023/12/05 00:37:19;;;;;;;7.80;7.60;;;;;;;-141.02;100.00;38726.34;5094729;28;20610;-80
2023/12/05 00:39:46;;;;;;;10.40;10.10;;;;;;;-141.02;100.00;38714.84;5094675;28;20200;-80
2023/12/05 00:42:13;;;;;;;12.77;12.37;;;;;;;-141.02;100.00;38722.50;5094969;28;20200;-84
2023/12/05 00:44:40;;;;;;;6.23;6.13;;;;;;;-141.02;100.00;38674.56;5094861;28;20228;-81
2023/12/05 00:47:08;;;;;;;6.67;6.47;;;;;;;-141.02;100.00;38691.84;5094469;28;20231;-85
2023/12/05 00:49:35;;;;;;;7.13;6.93;;;;;;;-141.02;100.00;38657.31;5094741;28;20272;-79
2023/12/05 00:52:02;;;;;;;7.00;6.80;;;;;;;-141.02;100.00;38661.16;5094343;28;20234;-84
2023/12/05 00:54:29;;;;;;;7.30;7.10;;;;;;;-141.02;100.00;38638.16;5094516;28;20562;-68
2023/12/05 00:56:56;;;;;;;7.73;7.53;;;;;;;-141.02;100.00;38599.81;5094600;28;20200;-79
2023/12/05 00:59:23;;;;;;;7.70;7.50;;;;;;;-141.02;100.00;38595.97;5094277;28;20570;-81
2023/12/05 01:01:51;;;;;;;8.43;8.23;;;;;;;-141.02;100.00;38557.63;5094343;28;20290;-68
2023/12/05 01:04:22;;;;;;;8.30;8.10;;;;;;;-141.02;100.00;38549.94;5094207;28;20190;-80
2023/12/05 01:06:51;;;;;;;8.57;8.37;;;;;;;-141.02;100.00;38534.63;5094322;28;20229;-86
2023/12/05 01:09:18;;;;;;;9.03;8.83;;;;;;;-141.02;100.00;38553.78;5094334;28;20216;-81
2023/12/05 01:11:51;;;;;;;8.30;8.10;;;;;;;-141.02;100.00;38492.44;5093981;28;20198;-68
2023/12/05 01:14:27;;;;;;;8.60;8.40;;;;;;;-141.02;100.00;38480.94;5093927;28;20572;-81
2023/12/05 01:16:54;;;;;;;9.20;8.97;;;;;;;-141.02;100.00;38446.41;5093802;28;20197;-82
2023/12/05 01:19:22;;;;;;;9.20;9.00;;;;;;;-141.02;100.00;38461.75;5094109;28;20236;-70
2023/12/05 01:21:50;;;;;;;8.53;8.33;;;;;;;-141.02;100.00;38438.75;5094087;28;20226;-83
2023/12/05 01:24:20;;;;;;;9.43;9.13;;;;;;;-141.02;100.00;38434.91;5093715;28;20190;-84
2023/12/05 01:26:50;;;;;;;9.60;9.30;;;;;;;-141.02;100.00;38473.25;5093934;28;20307;-83
2023/12/05 01:29:24;;;;;;;9.63;9.33;;;;;;;-141.02;100.00;38442.59;5093641;28;20544;-82
2023/12/05 01:31:51;;;;;;;11.23;10.93;;;;;;;-141.02;100.00;38429.16;5093631;28;20197;-83
2023/12/05 01:34:18;;;;;;;11.10;10.80;;;;;;;-141.02;100.00;38408.06;5093950;28;20200;-86
2023/12/05 01:36:46;;;;;;;11.10;10.80;;;;;;;-141.02;100.00;38408.06;5093474;28;20225;-83
2023/12/05 01:39:14;;;;;;;11.30;11.00;;;;;;;-141.02;100.00;38442.59;5093779;28;20190;-78
2023/12/05 01:41:41;;;;;;;10.37;10.07;;;;;;;-141.02;100.00;38423.41;5093737;28;20285;-76
2023/12/05 01:44:08;;;;;;;10.53;10.23;;;;;;;-141.02;100.00;38431.09;5093509;28;20639;-69
2023/12/05 01:46:35;;;;;;;11.03;10.73;;;;;;;-141.02;100.00;38438.75;5092826;28;20230;-68
2023/12/05 01:49:03;;;;;;;10.80;10.50;;;;;;;-141.02;100.00;38438.75;5093298;28;20284;-70
2023/12/05 01:51:32;;;;;;;11.20;10.90;;;;;;;-141.02;100.00;38423.41;5093648;28;20262;-86
2023/12/05 01:54:03;;;;;;;11.30;11.00;;;;;;;-141.02;100.00;38457.91;5093309;28;20189;-82
2023/12/05 01:56:31;;;;;;;11.87;11.57;;;;;;;-141.02;100.00;38467.50;5093247;28;20688;-78
2023/12/05 01:58:58;;;;;;;12.17;11.77;;;;;;;-141.02;100.00;38488.59;5093089;28;20229;-83
2023/12/05 02:01:25;;;;;;;11.70;11.40;;;;;;;-141.02;100.00;38461.75;5093552;28;20201;-68
2023/12/05 02:03:52;;;;;;;11.50;11.20;;;;;;;-141.02;100.00;38465.59;5093077;28;20241;-69
2023/12/05 02:06:21;;;;;;;11.70;11.40;;;;;;;-141.02;100.00;38519.28;5092982;28;20685;-73
2023/12/05 02:08:50;;;;;;;11.77;11.37;;;;;;;-141.02;100.00;38500.09;5093349;28;20233;-68
2023/12/05 02:11:24;;;;;;;12.37;11.97;;;;;;;-141.02;100.00;38484.75;5093233;28;20198;-85
2023/12/05 02:13:52;;;;;;;11.77;11.47;;;;;;;-141.02;100.00;38507.78;5092940;28;20232;-68
2023/12/05 02:16:27;;;;;;;12.10;11.70;;;;;;;-141.02;100.00;38515.44;5092751;28;20198;-84
2023/12/05 02:19:03;;;;;;;12.40;12.00;;;;;;;-141.02;100.00;38530.78;5092810;28;20192;-85
2023/12/05 02:21:34;;;;;;;13.27;12.87;;;;;;;-141.02;100.00;38500.09;5092727;28;20631;-78
2023/12/05 02:24:20;;;;;;;13.50;13.10;;;;;;;-141.02;100.00;38526.94;5093226;28;20185;-86
2023/12/05 02:26:58;;;;;;;13.77;13.37;;;;;;;-141.02;100.00;38592.13;5092706;28;20691;-77
2023/12/05 02:29:26;;;;;;;13.10;12.70;;;;;;;-141.02;100.00;38519.28;5092666;28;20192;-74
2023/12/05 02:32:04;;;;;;;12.70;12.30;;;;;;;-141.02;100.00;38523.09;5092898;28;20230;-68
2023/12/05 02:34:31;;;;;;;13.27;12.87;;;;;;;-141.02;100.00;38549.94;5092572;28;20232;-69
2023/12/05 02:37:09;;;;;;;13.20;12.80;;;;;;;-141.02;100.00;38565.28;5092583;28;20738;-81
2023/12/05 02:39:42;;;;;;;12.43;12.03;;;;;;;-141.02;100.00;38569.13;5092780;28;20207;-68
2023/12/05 02:42:12;;;;;;;12.80;12.40;;;;;;;-141.02;100.00;38676.50;5092579;28;20229;-69
2023/12/05 02:44:47;;;;;;;12.87;12.47;;;;;;;-141.02;100.00;38603.63;5092410;28;20247;-82
2023/12/05 02:47:17;;;;;;;13.63;13.13;;;;;;;-141.02;100.00;38647.72;5092347;28;20596;-87
2023/12/05 02:49:44;;;;;;;13.30;12.80;;;;;;;-141.02;100.00;38611.31;5092305;28;20289;-82
2023/12/05 02:52:11;;;;;;;13.33;12.83;;;;;;;-141.02;100.00;38620.88;5092442;28;20679;-85
2023/12/05 02:54:38;;;;;;;14.30;13.80;;;;;;;-141.02;100.00;38617.06;5092509;28;20228;-68
2023/12/05 02:57:05;;;;;;;14.60;14.10;;;;;;;-141.02;100.00;38607.47;5092568;28;20225;-69
2023/12/05 02:59:32;;;;;;;14.00;13.50;;;;;;;-141.02;100.00;38638.16;5092027;28;20206;-71
2023/12/05 03:02:00;;;;;;;13.97;13.47;;;;;;;-141.02;100.00;38624.72;5091815;28;20194;-81
2023/12/05 03:04:28;;;;;;;14.23;13.73;;;;;;;-141.02;100.00;38617.06;5092526;28;20190;-83
2023/12/05 03:06:55;;;;;;;14.07;13.57;;;;;;;-141.02;100.00;38628.56;5091941;28;20265;-69
2023/12/05 03:09:22;;;;;;;15.47;14.87;;;;;;;-141.02;100.00;38638.16;5092041;28;20197;-75
2023/12/05 03:11:49;;;;;;;15.50;14.90;;;;;;;-141.02;100.00;38649.66;5092189;28;20688;-73
2023/12/05 03:14:17;;;;;;;15.63;15.03;;;;;;;-141.02;100.00;38638.16;5092174;28;20200;-70
2023/12/05 03:16:44;;;;;;;15.17;14.57;;;;;;;-141.02;100.00;38668.81;5091988;28;20233;-68
2023/12/05 03:19:12;;;;;;;14.33;13.83;;;;;;;-141.02;100.00;38684.16;5092227;28;20220;-69
2023/12/05 03:21:39;;;;;;;14.80;14.20;;;;;;;-141.02;100.00;38676.50;5092326;28;20267;-80
2023/12/05 03:24:06;;;;;;;14.60;14.00;;;;;;;-141.02;100.00;38666.91;5092218;28;20197;-80
2023/12/05 03:26:33;;;;;;;14.83;14.23;;;;;;;-141.02;100.00;38680.34;5092187;28;20321;-70
2023/12/05 03:29:00;;;;;;;15.03;14.53;;;;;;;-141.02;100.00;38688.00;5092151;28;20280;-71
2023/12/05 03:31:27;;;;;;;16.30;15.70;;;;;;;-141.02;100.00;38711.00;5092238;28;20277;-80
2023/12/05 03:33:54;;;;;;;15.87;15.27;;;;;;;-141.02;100.00;38680.34;5092141;28;20198;-69
2023/12/05 03:36:22;;;;;;;14.83;14.33;;;;;;;-141.02;100.00;38680.34;5092141;28;20197;-69
2023/12/05 03:38:49;;;;;;;15.73;15.13;;;;;;;-141.02;100.00;38693.75;5092107;28;20277;-83
2023/12/05 03:41:16;;;;;;;15.90;15.30;;;;;;;-141.02;100.00;38707.19;5092074;28;20273;-70
2023/12/05 03:43:43;;;;;;;16.40;15.80;;;;;;;-141.02;100.00;38703.34;5092052;28;20637;-69
2023/12/05 03:46:10;;;;;;;15.50;14.90;;;;;;;-141.02;100.00;38737.84;5091747;28;20222;-76
2023/12/05 03:48:37;;;;;;;16.00;15.40;;;;;;;-141.02;100.00;38741.69;5091718;28;20689;-71
2023/12/05 03:51:05;;;;;;;15.60;15.00;;;;;;;-141.02;100.00;38734.03;5091764;28;20680;-79
2023/12/05 03:53:33;;;;;;;15.90;15.30;;;;;;;-141.02;100.00;38726.34;5091636;28;20194;-84
2023/12/05 03:56:00;;;;;;;16.13;15.53;;;;;;;-141.02;100.00;38722.50;5092349;28;20642;-86
2023/12/05 03:58:29;;;;;;;14.90;14.30;;;;;;;-141.02;100.00;38688.00;5091961;28;20631;-84
2023/12/05 04:00:56;;;;;;;14.93;14.33;;;;;;;-141.02;100.00;38739.78;5091587;28;20194;-69
2023/12/05 04:03:23;;;;;;;14.90;14.30;;;;;;;-141.02;100.00;38724.44;5091481;28;20235;-72
2023/12/05 04:05:50;;;;;;;15.23;14.63;;;;;;;-141.02;100.00;38689.91;5091712;28;20241;-81
2023/12/05 04:08:17;;;;;;;15.10;14.50;;;;;;;-141.02;100.00;38720.59;5091519;28;20198;-80
2023/12/05 04:10:45;;;;;;;14.70;14.10;;;;;;;-141.02;100.00;38703.34;5093335;28;20276;-71
2023/12/05 04:13:12;;;;;;;14.83;14.23;;;;;;;-141.02;100.00;38728.25;5095485;28;20281;-77
2023/12/05 04:15:41;;;;;;;15.67;15.07;;;;;;;-141.02;100.00;38703.34;5095099;28;20285;-80
2023/12/05 04:18:08;;;;;;;15.63;15.03;;;;;;;-141.02;100.00;38699.50;5095339;28;20200;-82
2023/12/05 04:20:38;;;;;;;15.63;15.03;;;;;;;-141.02;100.00;38695.66;5095103;28;20646;-78
2023/12/05 04:23:05;;;;;;;15.37;14.77;;;;;;;-141.02;100.00;38703.34;5095000;28;20661;-82
2023/12/05 04:25:32;;;;;;;14.23;13.73;;;;;;;-141.02;100.00;38699.50;5094928;28;20200;-69
2023/12/05 04:28:01;;;;;;;14.77;14.17;;;;;;;-141.02;100.00;38707.19;5094818;28;20225;-79
2023/12/05 04:30:28;;;;;;;14.07;13.57;;;;;;;-141.02;100.00;38686.09;5094891;28;20197;-72
2023/12/05 04:32:55;;;;;;;14.20;13.70;;;;;;;-141.02;100.00;38684.16;5095162;28;20791;-69
2023/12/05 04:35:22;;;;;;;14.10;13.60;;;;;;;-141.02;100.00;38707.19;5095074;28;20281;-70
2023/12/05 04:37:49;;;;;;;14.33;13.83;;;;;;;-141.02;100.00;38686.09;5094695;28;20198;-86
2023/12/05 04:40:16;;;;;;;14.50;14.00;;;;;;;-141.02;100.00;38701.41;5094933;28;20282;-68
2023/12/05 04:42:43;;;;;;;14.37;13.80;;;;;;;-141.02;100.00;38689.91;5095030;28;20204;-71
2023/12/05 04:45:12;;;;;;;14.53;13.93;;;;;;;-141.02;100.00;38688.00;5094982;28;20258;-76
2023/12/05 04:47:38;;;;;;;14.60;14.00;;;;;;;-141.02;100.00;38699.50;5094428;28;20261;-84
2023/12/05 04:50:06;;;;;;;13.90;13.40;;;;;;;-141.02;100.00;38695.66;5094797;28;20280;-69
2023/12/05 04:52:33;;;;;;;14.10;13.60;;;;;;;-141.02;100.00;38722.50;5094779;28;20202;-80
2023/12/05 04:55:00;;;;;;;14.67;14.07;;;;;;;-141.02;100.00;38714.84;5094752;28;20190;-69
2023/12/05 04:57:27;;;;;;;14.17;13.67;;;;;;;-141.02;100.00;38703.34;5094655;28;20220;-69
2023/12/05 04:59:55;;;;;;;14.70;14.10;;;;;;;-141.02;100.00;38684.16;5094555;28;20579;-70
2023/12/05 05:02:24;;;;;;;14.43;13.83;;;;;;;-141.02;100.00;38693.75;5094049;28;20314;-82
2023/12/05 05:04:51;;;;;;;15.17;14.57;;;;;;;-141.02;100.00;38688.00;5094234;28;20270;-82
2023/12/05 05:07:18;;;;;;;15.90;15.30;;;;;;;-141.02;100.00;38688.00;5094022;28;20609;-83
2023/12/05 05:09:45;;;;;;;15.80;15.20;;;;;;;-141.02;100.00;38703.34;5094366;28;20277;-70
2023/12/05 05:12:12;;;;;;;15.03;14.47;;;;;;;-141.02;100.00;38707.19;5094224;28;20285;-83
2023/12/05 05:14:39;;;;;;;13.57;13.07;;;;;;;-141.02;100.00;38691.84;5094074;28;20758;-83
2023/12/05 05:17:07;;;;;;;16.50;15.80;;;;;;;-141.02;100.00;38714.84;5093844;28;20251;-69
2023/12/05 05:19:36;;;;;;;15.30;14.70;;;;;;;-141.02;100.00;38703.34;5093904;28;20198;-68
2023/12/05 05:22:03;;;;;;;16.97;16.27;;;;;;;-141.02;100.00;38737.84;5093793;28;20285;-69
2023/12/05 05:24:30;;;;;;;13.50;13.00;;;;;;;-141.02;100.00;38726.34;5094328;28;20193;-81
2023/12/05 05:26:57;;;;;;;13.80;13.30;;;;;;;-141.02;100.00;38749.34;5093978;28;20228;-70
2023/12/05 05:29:24;;;;;;;13.83;13.33;;;;;;;-141.02;100.00;38785.78;5093987;28;20281;-71
2023/12/05 05:31:51;;;;;;;13.73;13.23;;;;;;;-141.02;100.00;38806.88;5093967;28;20200;-82
2023/12/05 05:34:18;;;;;;;14.10;13.60;;;;;;;-141.02;100.00;38856.72;5093886;28;20190;-82
2023/12/05 05:36:46;;;;;;;13.70;13.20;;;;;;;-141.02;100.00;38948.78;5094271;28;20288;-70
2023/12/05 05:39:13;;;;;;;13.60;13.10;;;;;;;-141.02;100.00;38983.28;5093492;28;20200;-86
2023/12/05 05:41:40;;;;;;;13.47;12.97;;;;;;;-141.02;100.00;39058.06;5093521;28;20196;-71
2023/12/05 05:44:07;;;;;;;13.47;12.97;;;;;;;-141.02;100.00;39056.16;5093929;28;20190;-69
2023/12/05 05:46:34;;;;;;;13.17;12.67;;;;;;;-141.02;100.00;39098.34;5093226;28;20237;-74
2023/12/05 05:49:01;;;;;;;13.20;12.70;;;;;;;-141.02;100.00;39313.13;5093397;28;20701;-82
2023/12/05 05:51:28;;;;;;;13.00;12.60;;;;;;;-141.02;100.00;39401.34;5093366;28;20229;-72
2023/12/05 05:53:57;;;;;;;13.27;12.87;;;;;;;-141.02;100.00;39380.25;5093240;28;20193;-69
2023/12/05 05:56:25;;;;;;;13.50;13.00;;;;;;;-141.02;100.00;39374.50;5093538;28;20224;-75
2023/12/05 05:58:52;;;;;;;14.07;13.57;;;;;;;-141.02;100.00;39370.66;5093167;28;20652;-82
2023/12/05 06:01:19;;;;;;;13.73;13.23;;;;;;;-141.02;100.00;39451.22;5093127;28;20236;-71
2023/12/05 06:03:46;;;;;;;13.07;12.67;;;;;;;-141.02;100.00;39489.56;5092861;28;20577;-69
2023/12/05 06:06:13;;;;;;;12.57;12.17;;;;;;;-141.02;100.00;39485.72;5093334;28;20193;-69
2023/12/05 06:08:40;;;;;;;12.50;12.10;;;;;;;-141.02;100.00;39468.47;5093299;28;20308;-69
2023/12/05 06:11:08;;;;;;;12.17;11.77;;;;;;;-141.02;100.00;39504.91;5092896;28;20194;-81
2023/12/05 06:13:35;;;;;;;12.50;12.10;;;;;;;-141.02;100.00;39518.31;5093168;28;20197;-69
2023/12/05 06:16:02;;;;;;;12.47;12.07;;;;;;;-141.02;100.00;39573.94;5092807;28;20653;-81
2023/12/05 06:18:29;;;;;;;12.30;11.90;;;;;;;-141.02;100.00;39585.44;5093177;28;20252;-83
2023/12/05 06:20:57;;;;;;;12.77;12.37;;;;;;;-141.02;100.00;39554.78;5093242;28;20198;-75
2023/12/05 06:23:24;;;;;;;12.70;12.30;;;;;;;-141.02;100.00;39627.66;5092883;28;20194;-68
2023/12/05 06:25:51;;;;;;;12.27;11.87;;;;;;;-141.02;100.00;39667.94;5092734;28;20574;-68
2023/12/05 06:28:19;;;;;;;12.90;12.40;;;;;;;-141.02;100.00;39723.53;5092850;28;20652;-69
2023/12/05 06:30:46;;;;;;;13.03;12.53;;;;;;;-141.02;100.00;39784.91;5093717;28;20229;-77
2023/12/05 06:33:13;;;;;;;13.47;12.97;;;;;;;-141.02;100.00;39804.09;5092107;28;20654;-81
2023/12/05 06:35:40;;;;;;;13.00;12.50;;;;;;;-141.02;100.00;39834.78;5092497;28;20643;-82
2023/12/05 06:38:08;;;;;;;13.17;12.70;;;;;;;-141.02;100.00;39969.06;5092760;28;20232;-80
2023/12/05 06:40:35;;;;;;;13.37;12.87;;;;;;;-141.02;100.00;40022.75;5092747;28;20211;-70
2023/12/05 06:43:02;;;;;;;13.00;12.60;;;;;;;-141.02;100.00;40036.19;5092760;28;20331;-83
2023/12/05 06:45:30;;;;;;;14.27;13.77;;;;;;;-141.02;100.00;40030.44;5092605;28;20280;-73
2023/12/05 06:47:57;;;;;;;14.30;13.80;;;;;;;-141.02;100.00;40034.28;5092291;28;20264;-80
2023/12/05 06:50:24;;;;;;;15.90;15.30;;;;;;;-141.02;100.00;40017.00;5092276;28;20189;-79
2023/12/05 06:52:51;;;;;;;14.70;14.20;;;;;;;-141.02;100.00;39992.06;5092965;28;20230;-80
2023/12/05 06:55:19;;;;;;;15.50;14.90;;;;;;;-141.02;100.00;39992.06;5092325;28;20200;-70
2023/12/05 06:57:45;;;;;;;12.70;12.20;;;;;;;-141.02;100.00;40087.97;5092110;28;20289;-79
2023/12/05 07:00:14;;;;;;;13.40;12.90;;;;;;;-141.02;100.00;40153.19;5092149;28;20285;-78
2023/12/05 07:02:42;;;;;;;13.30;12.80;;;;;;;-141.02;100.00;40203.06;5091890;28;20234;-78
2023/12/05 07:05:10;;;;;;;13.53;13.03;;;;;;;-141.02;100.00;40241.44;5092076;28;20323;-78
2023/12/05 07:07:37;;;;;;;13.23;12.73;;;;;;;-141.02;100.00;40241.44;5091916;28;20231;-71
2023/12/05 07:10:05;;;;;;;13.20;12.70;;;;;;;-141.02;100.00;40239.53;5092411;28;20228;-78
2023/12/05 07:12:32;;;;;;;13.70;13.20;;;;;;;-141.02;100.00;40275.97;5092407;28;20200;-77
2023/12/05 07:14:59;;;;;;;13.73;13.23;;;;;;;-141.02;100.00;40226.09;5092288;28;20276;-71
2023/12/05 07:17:26;;;;;;;12.90;12.50;;;;;;;-141.02;100.00;40264.47;5092314;28;20231;-77
2023/12/05 07:19:55;;;;;;;13.23;12.73;;;;;;;-141.02;100.00;40264.47;5091950;28;20240;-77
2023/12/05 07:22:21;;;;;;;13.90;13.30;;;;;;;-141.02;100.00;40264.47;5092021;28;20200;-76
2023/12/05 07:24:48;;;;;;;14.00;13.40;;;;;;;-141.02;100.00;40279.81;5092301;28;20232;-76
2023/12/05 07:27:15;;;;;;;14.50;13.80;;;;;;;-141.02;100.00;40283.63;5092129;28;20233;-73
2023/12/05 07:29:45;;;;;;;13.90;13.30;;;;;;;-141.02;100.00;40333.50;5091906;28;20750;-77
2023/12/05 07:32:12;;;;;;;14.40;13.80;;;;;;;-141.02;100.00;40281.72;5092169;28;20574;-75
2023/12/05 07:34:39;;;;;;;13.90;13.30;;;;;;;-141.02;100.00;40281.72;5091864;28;20233;-75
2023/12/05 07:37:08;;;;;;;13.80;13.30;;;;;;;-141.02;100.00;40256.78;5091833;28;20234;-75
2023/12/05 07:39:36;;;;;;;13.70;13.20;;;;;;;-141.02;100.00;40241.44;5092133;28;20225;-75
2023/12/05 07:42:03;;;;;;;13.43;12.93;;;;;;;-141.02;100.00;40224.16;5091807;28;20194;-74
2023/12/05 07:44:31;;;;;;;13.27;12.77;;;;;;;-141.02;100.00;40149.38;5091701;28;20754;-74
2023/12/05 07:46:58;;;;;;;13.57;13.07;;;;;;;-141.02;100.00;40141.69;5095692;28;20194;-73
2023/12/05 07:49:25;;;;;;;13.03;12.53;;;;;;;-141.02;100.00;40126.34;5095941;28;20230;-74
2023/12/05 07:51:52;;;;;;;13.87;13.37;;;;;;;-141.02;100.00;40130.19;5095973;28;20263;-73
2023/12/05 07:54:20;;;;;;;13.60;13.10;;;;;;;-141.02;100.00;40137.84;5095569;28;20234;-73
2023/12/05 07:56:47;;;;;;;13.33;12.83;;;;;;;-141.02;100.00;40068.78;5095775;28;20311;-74
2023/12/05 07:59:14;;;;;;;13.40;12.90;;;;;;;-141.02;100.00;40153.19;5095798;28;20290;-73
2023/12/05 08:01:42;;;;;;;13.83;13.33;;;;;;;-141.02;100.00;40130.19;5095417;28;20194;-73
2023/12/05 08:04:09;;;;;;;13.97;13.43;;;;;;;-141.02;100.00;40195.41;5095211;28;20275;-73
2023/12/05 08:06:36;;;;;;;13.70;13.20;;;;;;;-141.02;100.00;40233.75;5095554;28;20342;-73
2023/12/05 08:09:03;;;;;;;14.30;13.70;;;;;;;-141.02;100.00;40298.97;5095483;28;20631;-74
2023/12/05 08:11:31;;;;;;;14.30;13.60;;;;;;;-141.02;100.00;40341.19;5095215;28;20671;-74
2023/12/05 08:13:58;;;;;;;14.20;13.60;;;;;;;-141.02;100.00;40371.88;5095062;28;20216;-74
2023/12/05 08:16:25;;;;;;;14.20;13.60;;;;;;;-141.02;100.00;40387.22;5095481;28;20636;-74
2023/12/05 08:18:52;;;;;;;14.60;13.90;;;;;;;-141.02;100.00;40379.56;5095354;28;20285;-75
2023/12/05 08:21:19;;;;;;;15.60;14.90;;;;;;;-141.02;100.00;40394.91;5095017;28;20747;-75
2023/12/05 08:23:46;;;;;;;16.83;16.03;;;;;;;-141.02;100.00;40394.91;5094998;28;20221;-74
2023/12/05 08:26:13;;;;;;;15.00;14.30;;;;;;;-141.02;100.00;40383.38;5094917;28;20701;-74
2023/12/05 08:28:41;;;;;;;15.17;14.37;;;;;;;-141.02;100.00;40414.09;5095165;28;20248;-73
2023/12/05 08:31:08;;;;;;;15.73;14.83;;;;;;;-141.02;100.00;40567.56;5095167;28;20627;-73
2023/12/05 08:33:35;;;;;;;15.90;15.00;;;;;;;-141.02;100.00;40425.59;5095075;28;20236;-73
2023/12/05 08:36:02;;;;;;;16.40;15.50;;;;;;;-141.02;100.00;40533.03;5094728;28;20240;-73
2023/12/05 08:38:29;;;;;;;16.00;15.10;;;;;;;-141.02;100.00;40494.66;5094992;28;20200;-73
2023/12/05 08:40:56;;;;;;;16.73;15.73;;;;;;;-141.02;100.00;40552.22;5095049;28;20286;-72
2023/12/05 08:43:23;;;;;;;16.50;15.50;;;;;;;-141.02;100.00;40536.88;5094879;28;20263;-72
2023/12/05 08:45:52;;;;;;;16.40;15.40;;;;;;;-141.02;100.00;40563.72;5094564;28;20292;-74
2023/12/05 08:48:19;;;;;;;17.07;15.97;;;;;;;-141.02;100.00;40563.72;5094721;28;20237;-73
2023/12/05 08:50:46;;;;;;;17.67;16.47;;;;;;;-141.02;100.00;40546.47;5094452;28;20289;-72
2023/12/05 08:53:13;;;;;;;17.87;16.67;;;;;;;-141.02;100.00;40533.03;5094722;28;20205;-73
2023/12/05 08:55:42;;;;;;;19.30;17.90;;;;;;;-141.02;100.00;40486.97;5094041;28;20280;-73
2023/12/05 08:58:09;;;;;;;19.03;17.63;;;;;;;-141.02;100.00;40440.94;5094667;28;20251;-74
2023/12/05 09:00:36;;;;;;;19.20;17.90;;;;;;;-141.02;100.00;40379.56;5094183;28;20229;-72
2023/12/05 09:03:04;;;;;;;18.13;16.87;;;;;;;-141.02;100.00;40440.94;5094045;28;20317;-73
2023/12/05 09:05:31;;;;;;;18.57;17.33;;;;;;;-141.02;100.00;40408.34;5094497;28;20296;-73
2023/12/05 09:07:58;;;;;;;17.40;16.30;;;;;;;-141.02;100.00;40529.19;5094056;28;20831;-73
2023/12/05 09:10:25;;;;;;;17.17;16.07;;;;;;;-141.02;100.00;40448.63;5094394;28;20280;-73
2023/12/05 09:12:52;;;;;;;17.97;16.77;;;;;;;-141.02;100.00;40416.00;5094023;28;20198;-73
2023/12/05 09:15:19;;;;;;;17.17;16.03;;;;;;;-141.02;100.00;40419.84;5094039;28;20285;-74
2023/12/05 09:17:46;;;;;;;17.60;16.40;;;;;;;-141.02;100.00;40440.94;5093965;28;20755;-73
2023/12/05 09:20:14;;;;;;;17.40;16.30;;;;;;;-141.02;100.00;40469.72;5093884;28;20622;-73
2023/12/05 09:22:41;;;;;;;16.90;15.80;;;;;;;-141.02;100.00;40479.31;5093952;28;20190;-74
2023/12/05 09:25:09;;;;;;;16.77;15.67;;;;;;;-141.02;100.00;40467.81;5094104;28;20196;-73
2023/12/05 09:27:37;;;;;;;16.73;15.63;;;;;;;-141.02;100.00;40460.13;5093734;28;20630;-72
2023/12/05 09:30:05;;;;;;;17.20;16.10;;;;;;;-141.02;100.00;40521.50;5093707;28;20285;-74
2023/12/05 09:32:32;;;;;;;17.10;16.00;;;;;;;-141.02;100.00;40458.22;5094478;28;20296;-72
2023/12/05 09:34:59;;;;;;;17.87;16.67;;;;;;;-141.02;100.00;40410.25;5093957;28;20202;-72
2023/12/05 09:37:28;;;;;;;17.80;16.60;;;;;;;-141.02;100.00;40463.97;5093565;28;20285;-73
2023/12/05 09:39:55;;;;;;;17.70;16.50;;;;;;;-141.02;100.00;40527.28;5093791;28;20286;-73
2023/12/05 09:42:26;;;;;;;18.03;16.73;;;;;;;-141.02;100.00;40573.31;5093494;28;20666;-74
2023/12/05 09:44:54;;;;;;;19.07;17.67;;;;;;;-141.02;100.00;40628.94;5093517;28;20188;-72
2023/12/05 09:47:22;;;;;;;18.13;16.83;;;;;;;-141.02;100.00;40573.31;5093361;28;20284;-74
2023/12/05 09:49:49;;;;;;;21.70;20.20;;;;;;;-141.02;100.00;40529.19;5093599;28;20312;-73
2023/12/05 09:52:17;;;;;;;18.07;16.67;;;;;;;-141.02;100.00;40479.31;5093536;28;20205;-73
2023/12/05 09:54:46;;;;;;;21.97;20.47;;;;;;;-141.02;100.00;40536.88;5093221;28;20280;-73
2023/12/05 09:57:13;;;;;;;25.47;23.77;;;;;;;-141.02;100.00;40494.66;5093285;28;20201;-72
2023/12/05 09:59:41;;;;;;;27.13;25.33;;;;;;;-141.02;100.00;40510.00;5093146;28;20198;-72
2023/12/05 10:02:09;;;;;;;30.00;28.10;;;;;;;-141.02;100.00;40456.28;5093680;28;20200;-72
2023/12/05 10:04:42;;;;;;;31.27;29.37;;;;;;;-141.02;100.00;40440.94;5093321;28;20194;-72
2023/12/05 10:07:11;;;;;;;28.80;27.00;;;;;;;-141.02;100.00;40429.44;5093243;28;20194;-72
2023/12/05 10:09:41;;;;;;;30.40;28.50;;;;;;;-141.02;100.00;40440.94;5092673;28;20232;-73
2023/12/05 10:12:11;;;;;;;17.77;16.57;;;;;;;-141.02;100.00;40423.69;5093257;28;20632;-73
2023/12/05 10:14:39;;;;;;;18.90;17.60;;;;;;;-141.02;100.00;40402.56;5092919;28;20243;-72
2023/12/05 10:17:07;;;;;;;18.47;17.17;;;;;;;-141.02;100.00;40439.03;5092849;28;20290;-72
2023/12/05 10:19:34;;;;;;;16.70;15.60;;;;;;;-141.02;100.00;40477.41;5093096;28;20272;-72
2023/12/05 10:22:03;;;;;;;16.37;15.27;;;;;;;-141.02;100.00;40473.56;5093032;28;20297;-72
2023/12/05 10:24:40;;;;;;;16.27;15.17;;;;;;;-141.02;100.00;40494.66;5092699;28;20663;-72
2023/12/05 10:27:09;;;;;;;16.63;15.53;;;;;;;-141.02;100.00;40506.16;5092632;28;20651;-72
2023/12/05 10:29:41;;;;;;;16.90;15.70;;;;;;;-141.02;100.00;40437.09;5092546;28;20723;-72
2023/12/05 10:32:09;;;;;;;16.50;15.40;;;;;;;-141.02;100.00;40483.16;5092571;28;20284;-72
2023/12/05 10:34:49;;;;;;;16.20;15.10;;;;;;;-141.02;100.00;40479.31;5092928;28;20201;-72
2023/12/05 10:37:21;;;;;;;16.07;15.07;;;;;;;-141.02;100.00;40721.03;5092517;28;20578;-72
2023/12/05 10:39:50;;;;;;;16.80;15.60;;;;;;;-141.02;100.00;40485.06;5092826;28;20229;-71
2023/12/05 10:42:18;;;;;;;16.77;15.60;;;;;;;-141.02;100.00;40460.13;5092349;28;20675;-72
2023/12/05 10:44:45;;;;;;;16.80;15.60;;;;;;;-141.02;100.00;40613.59;5092697;28;20277;-72
2023/12/05 10:47:13;;;;;;;17.00;15.80;;;;;;;-141.02;100.00;40529.19;5092372;28;20194;-72
2023/12/05 10:49:42;;;;;;;16.50;15.30;;;;;;;-141.02;100.00;40556.03;5092534;28;20665;-72
2023/12/05 10:52:09;;;;;;;16.90;15.70;;;;;;;-141.02;100.00;40536.88;5092607;28;20205;-72
2023/12/05 10:54:36;;;;;;;16.70;15.50;;;;;;;-141.02;100.00;40671.16;5092175;28;20702;-72
2023/12/05 10:57:09;;;;;;;16.83;15.63;;;;;;;-141.02;100.00;40579.06;5092597;28;20322;-72
2023/12/05 10:59:38;;;;;;;18.00;16.60;;;;;;;-141.02;100.00;40650.06;5092278;28;20193;-72